createdAt,value
2018-09-16T00:00:28.443Z,1013.68
2018-09-16T00:01:28.414Z,1013.66
2018-09-16T00:02:28.345Z,1013.71
2018-09-16T00:03:28.292Z,1013.69
2018-09-16T00:04:28.250Z,1013.68
2018-09-16T00:05:28.201Z,1013.68
2018-09-16T00:06:28.182Z,1013.64
2018-09-16T00:07:28.090Z,1013.66
2018-09-16T00:08:28.040Z,1013.64
2018-09-16T00:09:27.993Z,1013.62
2018-09-16T00:10:27.961Z,1013.65
2018-09-16T00:11:27.915Z,1013.65
2018-09-16T00:12:27.838Z,1013.67
2018-09-16T00:13:27.789Z,1013.68
2018-09-16T00:14:27.747Z,1013.66
2018-09-16T00:15:27.689Z,1013.66
2018-09-16T00:16:27.684Z,1013.64
2018-09-16T00:17:27.596Z,1013.66
2018-09-16T00:18:27.541Z,1013.66
2018-09-16T00:19:27.498Z,1013.66
2018-09-16T00:20:27.444Z,1013.68
2018-09-16T00:21:27.403Z,1013.67
2018-09-16T00:22:27.365Z,1013.63
2018-09-16T00:23:27.294Z,1013.64
2018-09-16T00:24:27.244Z,1013.66
2018-09-16T00:25:27.206Z,1013.66
2018-09-16T00:26:27.145Z,1013.65
2018-09-16T00:27:27.140Z,1013.66
2018-09-16T00:28:27.040Z,1013.60
2018-09-16T00:29:26.989Z,1013.61
2018-09-16T00:30:26.946Z,1013.58
2018-09-16T00:31:26.900Z,1013.59
2018-09-16T00:32:26.887Z,1013.59
2018-09-16T00:33:26.788Z,1013.56
2018-09-16T00:34:26.739Z,1013.59
2018-09-16T00:35:26.688Z,1013.55
2018-09-16T00:36:26.668Z,1013.54
2018-09-16T00:37:26.641Z,1013.51
2018-09-16T00:38:26.555Z,1013.51
2018-09-16T00:39:26.501Z,1013.50
2018-09-16T00:40:26.445Z,1013.48
2018-09-16T00:41:26.397Z,1013.46
2018-09-16T00:42:26.382Z,1013.49
2018-09-16T00:43:26.294Z,1013.43
2018-09-16T00:44:26.252Z,1013.42
2018-09-16T00:45:26.187Z,1013.43
2018-09-16T00:46:26.138Z,1013.44
2018-09-16T00:47:26.128Z,1013.43
2018-09-16T00:48:26.038Z,1013.41
2018-09-16T00:49:26.043Z,1013.44
2018-09-16T00:50:25.944Z,1013.41
2018-09-16T00:51:25.901Z,1013.41
2018-09-16T00:52:25.868Z,1013.41
2018-09-16T00:53:25.809Z,1013.38
2018-09-16T00:54:25.742Z,1013.39
2018-09-16T00:55:25.707Z,1013.39
2018-09-16T00:56:25.641Z,1013.42
2018-09-16T00:57:25.631Z,1013.40
2018-09-16T00:58:25.541Z,1013.43
2018-09-16T00:59:25.517Z,1013.43
2018-09-16T01:00:25.438Z,1013.42
2018-09-16T01:01:25.397Z,1013.42
2018-09-16T01:02:25.363Z,1013.41
2018-09-16T01:03:25.315Z,1013.42
2018-09-16T01:04:25.250Z,1013.38
2018-09-16T01:05:25.201Z,1013.36
2018-09-16T01:06:25.138Z,1013.36
2018-09-16T01:07:25.134Z,1013.36
2018-09-16T01:08:25.044Z,1013.34
2018-09-16T01:09:24.988Z,1013.34
2018-09-16T01:10:24.955Z,1013.30
2018-09-16T01:11:24.887Z,1013.32
2018-09-16T01:12:24.876Z,1013.31
2018-09-16T01:13:24.806Z,1013.28
2018-09-16T01:14:24.739Z,1013.27
2018-09-16T01:15:24.687Z,1013.27
2018-09-16T01:16:24.643Z,1013.25
2018-09-16T01:17:24.650Z,1013.27
2018-09-16T01:18:24.559Z,1013.23
2018-09-16T01:19:24.485Z,1013.23
2018-09-16T01:20:24.441Z,1013.20
2018-09-16T01:21:24.394Z,1013.19
2018-09-16T01:22:24.369Z,1013.20
2018-09-16T01:23:24.291Z,1013.19
2018-09-16T01:24:24.263Z,1013.15
2018-09-16T01:25:24.202Z,1013.16
2018-09-16T01:26:24.139Z,1013.13
2018-09-16T01:27:24.141Z,1013.09
2018-09-16T01:28:24.035Z,1013.08
2018-09-16T01:29:23.989Z,1013.12
2018-09-16T01:30:23.952Z,1013.05
2018-09-16T01:31:23.897Z,1013.04
2018-09-16T01:32:23.837Z,1013.06
2018-09-16T01:33:23.824Z,1013.07
2018-09-16T01:34:23.747Z,1013.08
2018-09-16T01:35:23.689Z,1013.09
2018-09-16T01:36:23.634Z,1013.06
2018-09-16T01:37:23.591Z,1013.07
2018-09-16T01:38:23.559Z,1013.08
2018-09-16T01:39:23.506Z,1013.06
2018-09-16T01:40:23.437Z,1013.04
2018-09-16T01:41:23.398Z,1013.06
2018-09-16T01:42:23.341Z,1013.06
2018-09-16T01:43:23.317Z,1013.01
2018-09-16T01:44:23.235Z,1012.98
2018-09-16T01:45:23.197Z,1013.03
2018-09-16T01:46:23.151Z,1013.02
2018-09-16T01:47:23.083Z,1012.96
2018-09-16T01:48:23.092Z,1012.96
2018-09-16T01:49:22.988Z,1012.98
2018-09-16T01:50:22.935Z,1012.96
2018-09-16T01:51:22.896Z,1012.98
2018-09-16T01:52:22.833Z,1012.95
2018-09-16T01:53:22.848Z,1012.94
2018-09-16T01:54:22.735Z,1012.92
2018-09-16T01:55:22.692Z,1012.93
2018-09-16T01:56:22.634Z,1012.94
2018-09-16T01:57:22.591Z,1012.91
2018-09-16T01:58:22.553Z,1012.94
2018-09-16T01:59:22.479Z,1012.90
2018-09-16T02:00:22.434Z,1012.91
2018-09-16T02:01:22.386Z,1012.86
2018-09-16T02:02:22.341Z,1012.88
2018-09-16T02:03:22.304Z,1012.86
2018-09-16T02:04:22.236Z,1012.84
2018-09-16T02:05:22.192Z,1012.82
2018-09-16T02:06:22.141Z,1012.83
2018-09-16T02:07:22.084Z,1012.79
2018-09-16T02:08:22.057Z,1012.80
2018-09-16T02:09:21.998Z,1012.84
2018-09-16T02:10:21.943Z,1012.82
2018-09-16T02:11:21.879Z,1012.77
2018-09-16T02:12:21.845Z,1012.78
2018-09-16T02:13:21.813Z,1012.73
2018-09-16T02:14:21.739Z,1012.70
2018-09-16T02:15:21.680Z,1012.73
2018-09-16T02:16:21.630Z,1012.68
2018-09-16T02:17:21.583Z,1012.70
2018-09-16T02:18:21.550Z,1012.69
2018-09-16T02:19:21.490Z,1012.66
2018-09-16T02:20:21.431Z,1012.68
2018-09-16T02:21:21.376Z,1012.69
2018-09-16T02:22:21.328Z,1012.65
2018-09-16T02:23:21.303Z,1012.65
2018-09-16T02:24:21.226Z,1012.63
2018-09-16T02:25:21.189Z,1012.58
2018-09-16T02:26:21.137Z,1012.60
2018-09-16T02:27:21.100Z,1012.61
2018-09-16T02:28:21.072Z,1012.64
2018-09-16T02:29:20.996Z,1012.58
2018-09-16T02:30:20.959Z,1012.58
2018-09-16T02:31:20.883Z,1012.56
2018-09-16T02:32:20.825Z,1012.60
2018-09-16T02:33:20.807Z,1012.58
2018-09-16T02:34:20.725Z,1012.55
2018-09-16T02:35:20.682Z,1012.57
2018-09-16T02:36:20.628Z,1012.57
2018-09-16T02:37:20.576Z,1012.58
2018-09-16T02:38:20.576Z,1012.56
2018-09-16T02:39:20.471Z,1012.58
2018-09-16T02:40:20.417Z,1012.60
2018-09-16T02:41:20.387Z,1012.56
2018-09-16T02:42:20.321Z,1012.56
2018-09-16T02:43:20.370Z,1012.52
2018-09-16T02:44:20.233Z,1012.54
2018-09-16T02:45:20.171Z,1012.50
2018-09-16T02:46:20.124Z,1012.49
2018-09-16T02:47:20.077Z,1012.47
2018-09-16T02:48:20.020Z,1012.41
2018-09-16T02:49:19.994Z,1012.44
2018-09-16T02:50:19.929Z,1012.44
2018-09-16T02:51:19.876Z,1012.46
2018-09-16T02:52:19.832Z,1012.43
2018-09-16T02:53:19.773Z,1012.45
2018-09-16T02:54:19.761Z,1012.41
2018-09-16T02:55:19.665Z,1012.40
2018-09-16T02:56:19.616Z,1012.41
2018-09-16T02:57:19.565Z,1012.36
2018-09-16T02:58:19.520Z,1012.38
2018-09-16T02:59:19.497Z,1012.36
2018-09-16T03:00:19.441Z,1012.38
2018-09-16T03:01:19.364Z,1012.39
2018-09-16T03:02:19.331Z,1012.36
2018-09-16T03:03:19.261Z,1012.37
2018-09-16T03:04:19.248Z,1012.37
2018-09-16T03:05:19.177Z,1012.38
2018-09-16T03:06:19.111Z,1012.41
2018-09-16T03:07:19.069Z,1012.42
2018-09-16T03:08:19.012Z,1012.38
2018-09-16T03:09:18.987Z,1012.37
2018-09-16T03:10:18.919Z,1012.37
2018-09-16T03:11:18.871Z,1012.36
2018-09-16T03:12:18.813Z,1012.37
2018-09-16T03:13:18.760Z,1012.34
2018-09-16T03:14:18.732Z,1012.36
2018-09-16T03:15:18.668Z,1012.36
2018-09-16T03:16:18.615Z,1012.35
2018-09-16T03:17:18.564Z,1012.36
2018-09-16T03:18:18.508Z,1012.39
2018-09-16T03:19:18.513Z,1012.32
2018-09-16T03:20:18.406Z,1012.33
2018-09-16T03:21:18.366Z,1012.33
2018-09-16T03:22:18.307Z,1012.32
2018-09-16T03:23:18.259Z,1012.30
2018-09-16T03:24:18.231Z,1012.29
2018-09-16T03:25:18.184Z,1012.33
2018-09-16T03:26:18.102Z,1012.33
2018-09-16T03:27:18.063Z,1012.31
2018-09-16T03:28:18.009Z,1012.34
2018-09-16T03:29:17.986Z,1012.32
2018-09-16T03:30:17.913Z,1012.32
2018-09-16T03:31:17.856Z,1012.35
2018-09-16T03:32:17.824Z,1012.34
2018-09-16T03:33:17.755Z,1012.31
2018-09-16T03:34:17.733Z,1012.29
2018-09-16T03:35:17.686Z,1012.30
2018-09-16T03:36:17.598Z,1012.32
2018-09-16T03:37:17.542Z,1012.30
2018-09-16T03:38:17.512Z,1012.29
2018-09-16T03:39:17.475Z,1012.29
2018-09-16T03:40:17.394Z,1012.27
2018-09-16T03:41:17.339Z,1012.28
2018-09-16T03:42:17.297Z,1012.26
2018-09-16T03:43:17.240Z,1012.26
2018-09-16T03:44:17.229Z,1012.22
2018-09-16T03:45:17.144Z,1012.25
2018-09-16T03:46:17.102Z,1012.26
2018-09-16T03:47:17.035Z,1012.29
2018-09-16T03:48:16.990Z,1012.25
2018-09-16T03:49:16.972Z,1012.23
2018-09-16T03:50:16.899Z,1012.25
2018-09-16T03:51:16.841Z,1012.15
2018-09-16T03:52:16.781Z,1012.15
2018-09-16T03:53:16.738Z,1012.19
2018-09-16T03:54:16.747Z,1012.12
2018-09-16T03:55:16.645Z,1012.15
2018-09-16T03:56:16.589Z,1012.13
2018-09-16T03:57:16.531Z,1012.13
2018-09-16T03:58:16.485Z,1012.17
2018-09-16T03:59:16.441Z,1012.14
2018-09-16T04:00:16.411Z,1012.16
2018-09-16T04:01:16.339Z,1012.21
2018-09-16T04:02:16.274Z,1012.14
2018-09-16T04:03:16.242Z,1012.15
2018-09-16T04:04:16.197Z,1012.19
2018-09-16T04:05:16.161Z,1012.19
2018-09-16T04:06:16.091Z,1012.20
2018-09-16T04:07:16.032Z,1012.17
2018-09-16T04:08:15.982Z,1012.14
2018-09-16T04:09:15.958Z,1012.16
2018-09-16T04:10:15.906Z,1012.13
2018-09-16T04:11:15.830Z,1012.13
2018-09-16T04:12:15.779Z,1012.14
2018-09-16T04:13:15.742Z,1012.15
2018-09-16T04:14:15.681Z,1012.15
2018-09-16T04:15:15.644Z,1012.15
2018-09-16T04:16:15.572Z,1012.16
2018-09-16T04:17:15.535Z,1012.17
2018-09-16T04:18:15.470Z,1012.20
2018-09-16T04:19:15.439Z,1012.22
2018-09-16T04:20:15.407Z,1012.19
2018-09-16T04:21:15.322Z,1012.24
2018-09-16T04:22:15.266Z,1012.19
2018-09-16T04:23:15.213Z,1012.18
2018-09-16T04:24:15.191Z,1012.21
2018-09-16T04:25:15.147Z,1012.21
2018-09-16T04:26:15.065Z,1012.25
2018-09-16T04:27:15.007Z,1012.22
2018-09-16T04:28:14.959Z,1012.22
2018-09-16T04:29:14.920Z,1012.24
2018-09-16T04:30:14.898Z,1012.24
2018-09-16T04:31:14.808Z,1012.21
2018-09-16T04:32:14.768Z,1012.23
2018-09-16T04:33:14.738Z,1012.22
2018-09-16T04:34:14.679Z,1012.25
2018-09-16T04:35:14.658Z,1012.30
2018-09-16T04:36:14.573Z,1012.30
2018-09-16T04:37:14.506Z,1012.33
2018-09-16T04:38:14.474Z,1012.27
2018-09-16T04:39:14.429Z,1012.30
2018-09-16T04:40:14.398Z,1012.34
2018-09-16T04:41:14.310Z,1012.29
2018-09-16T04:42:14.285Z,1012.30
2018-09-16T04:43:14.214Z,1012.29
2018-09-16T04:44:14.175Z,1012.33
2018-09-16T04:45:14.146Z,1012.32
2018-09-16T04:46:14.051Z,1012.31
2018-09-16T04:47:13.998Z,1012.34
2018-09-16T04:48:13.944Z,1012.30
2018-09-16T04:49:13.916Z,1012.30
2018-09-16T04:50:13.911Z,1012.32
2018-09-16T04:51:13.812Z,1012.35
2018-09-16T04:52:13.745Z,1012.33
2018-09-16T04:53:13.699Z,1012.37
2018-09-16T04:54:13.667Z,1012.33
2018-09-16T04:55:13.615Z,1012.32
2018-09-16T04:56:13.543Z,1012.32
2018-09-16T04:57:13.485Z,1012.36
2018-09-16T04:58:13.458Z,1012.38
2018-09-16T04:59:13.388Z,1012.42
2018-09-16T05:00:13.373Z,1012.39
2018-09-16T05:01:13.350Z,1012.44
2018-09-16T05:02:13.248Z,1012.45
2018-09-16T05:03:13.191Z,1012.43
2018-09-16T05:04:13.170Z,1012.47
2018-09-16T05:05:13.147Z,1012.45
2018-09-16T05:06:13.065Z,1012.44
2018-09-16T05:07:12.983Z,1012.46
2018-09-16T05:08:12.936Z,1012.46
2018-09-16T05:09:12.888Z,1012.48
2018-09-16T05:10:12.894Z,1012.48
2018-09-16T05:11:12.782Z,1012.47
2018-09-16T05:12:12.745Z,1012.46
2018-09-16T05:13:12.686Z,1012.51
2018-09-16T05:14:12.648Z,1012.48
2018-09-16T05:15:12.577Z,1012.47
2018-09-16T05:16:12.580Z,1012.47
2018-09-16T05:17:12.477Z,1012.46
2018-09-16T05:18:12.467Z,1012.49
2018-09-16T05:19:12.377Z,1012.46
2018-09-16T05:20:12.340Z,1012.53
2018-09-16T05:21:12.307Z,1012.52
2018-09-16T05:22:12.250Z,1012.49
2018-09-16T05:23:12.183Z,1012.53
2018-09-16T05:24:12.132Z,1012.51
2018-09-16T05:25:12.087Z,1012.51
2018-09-16T05:26:12.050Z,1012.48
2018-09-16T05:27:11.974Z,1012.50
2018-09-16T05:28:11.919Z,1012.49
2018-09-16T05:29:11.869Z,1012.48
2018-09-16T05:30:11.815Z,1012.48
2018-09-16T05:31:11.806Z,1012.52
2018-09-16T05:32:11.715Z,1012.50
2018-09-16T05:33:11.665Z,1012.51
2018-09-16T05:34:11.617Z,1012.47
2018-09-16T05:35:11.584Z,1012.50
2018-09-16T05:36:11.551Z,1012.48
2018-09-16T05:37:11.470Z,1012.48
2018-09-16T05:38:11.425Z,1012.51
2018-09-16T05:39:11.390Z,1012.50
2018-09-16T05:40:11.349Z,1012.48
2018-09-16T05:41:11.305Z,1012.53
2018-09-16T05:42:11.232Z,1012.51
2018-09-16T05:43:11.186Z,1012.50
2018-09-16T05:44:11.113Z,1012.50
2018-09-16T05:45:11.065Z,1012.54
2018-09-16T05:46:11.037Z,1012.58
2018-09-16T05:47:10.965Z,1012.56
2018-09-16T05:48:10.912Z,1012.56
2018-09-16T05:49:10.858Z,1012.54
2018-09-16T05:50:10.835Z,1012.58
2018-09-16T05:51:10.785Z,1012.57
2018-09-16T05:52:10.717Z,1012.59
2018-09-16T05:53:10.719Z,1012.59
2018-09-16T05:54:10.626Z,1012.61
2018-09-16T05:55:10.561Z,1012.58
2018-09-16T05:56:10.525Z,1012.59
2018-09-16T05:57:10.471Z,1012.60
2018-09-16T05:58:10.412Z,1012.61
2018-09-16T05:59:10.423Z,1012.61
2018-09-16T06:00:10.329Z,1012.63
2018-09-16T06:01:10.294Z,1012.60
2018-09-16T06:02:10.218Z,1012.57
2018-09-16T06:03:10.172Z,1012.57
2018-09-16T06:04:10.142Z,1012.57
2018-09-16T06:05:10.080Z,1012.52
2018-09-16T06:06:10.482Z,1012.54
2018-09-16T06:07:10.378Z,1012.54
2018-09-16T06:08:09.913Z,1012.60
2018-09-16T06:09:09.872Z,1012.55
2018-09-16T06:10:09.805Z,1012.56
2018-09-16T06:11:09.788Z,1012.55
2018-09-16T06:12:09.700Z,1012.55
2018-09-16T06:13:09.657Z,1012.54
2018-09-16T06:14:09.597Z,1012.53
2018-09-16T06:15:09.551Z,1012.59
2018-09-16T06:16:09.538Z,1012.58
2018-09-16T06:17:09.461Z,1012.59
2018-09-16T06:18:09.409Z,1012.56
2018-09-16T06:19:09.373Z,1012.57
2018-09-16T06:20:09.315Z,1012.62
2018-09-16T06:21:09.306Z,1012.61
2018-09-16T06:22:09.245Z,1012.64
2018-09-16T06:23:09.163Z,1012.61
2018-09-16T06:24:09.099Z,1012.64
2018-09-16T06:25:09.051Z,1012.65
2018-09-16T06:26:09.043Z,1012.60
2018-09-16T06:27:08.973Z,1012.59
2018-09-16T06:28:08.904Z,1012.59
2018-09-16T06:29:08.878Z,1012.56
2018-09-16T06:30:08.805Z,1012.59
2018-09-16T06:31:08.760Z,1012.62
2018-09-16T06:32:08.734Z,1012.59
2018-09-16T06:33:08.657Z,1012.58
2018-09-16T06:34:08.609Z,1012.56
2018-09-16T06:35:08.552Z,1012.58
2018-09-16T06:36:08.511Z,1012.60
2018-09-16T06:37:08.483Z,1012.55
2018-09-16T06:38:08.405Z,1012.57
2018-09-16T06:39:08.365Z,1012.56
2018-09-16T06:40:08.312Z,1012.51
2018-09-16T06:41:08.270Z,1012.49
2018-09-16T06:42:08.235Z,1012.48
2018-09-16T06:43:08.159Z,1012.47
2018-09-16T06:44:08.115Z,1012.47
2018-09-16T06:45:08.062Z,1012.46
2018-09-16T06:46:08.017Z,1012.45
2018-09-16T06:47:08.001Z,1012.46
2018-09-16T06:48:07.925Z,1012.45
2018-09-16T06:49:07.889Z,1012.46
2018-09-16T06:50:07.838Z,1012.46
2018-09-16T06:51:07.791Z,1012.45
2018-09-16T06:52:07.764Z,1012.48
2018-09-16T06:53:07.704Z,1012.50
2018-09-16T06:54:07.626Z,1012.50
2018-09-16T06:55:07.599Z,1012.50
2018-09-16T06:56:07.530Z,1012.48
2018-09-16T06:57:07.501Z,1012.49
2018-09-16T06:58:07.426Z,1012.44
2018-09-16T06:59:07.373Z,1012.50
2018-09-16T07:00:07.339Z,1012.49
2018-09-16T07:01:07.289Z,1012.51
2018-09-16T07:02:07.272Z,1012.52
2018-09-16T07:03:07.195Z,1012.53
2018-09-16T07:04:07.133Z,1012.57
2018-09-16T07:05:07.092Z,1012.53
2018-09-16T07:06:07.045Z,1012.52
2018-09-16T07:07:07.016Z,1012.52
2018-09-16T07:08:06.957Z,1012.50
2018-09-16T07:09:06.888Z,1012.47
2018-09-16T07:10:06.862Z,1012.51
2018-09-16T07:11:06.804Z,1012.50
2018-09-16T07:12:06.771Z,1012.52
2018-09-16T07:13:06.697Z,1012.46
2018-09-16T07:14:06.648Z,1012.46
2018-09-16T07:15:06.600Z,1012.50
2018-09-16T07:16:06.553Z,1012.46
2018-09-16T07:17:06.544Z,1012.47
2018-09-16T07:18:06.457Z,1012.46
2018-09-16T07:19:06.420Z,1012.48
2018-09-16T07:20:06.371Z,1012.49
2018-09-16T07:21:06.323Z,1012.47
2018-09-16T07:22:06.303Z,1012.50
2018-09-16T07:23:06.209Z,1012.47
2018-09-16T07:24:06.171Z,1012.46
2018-09-16T07:25:06.126Z,1012.49
2018-09-16T07:26:06.074Z,1012.52
2018-09-16T07:27:06.059Z,1012.51
2018-09-16T07:28:05.996Z,1012.51
2018-09-16T07:29:05.932Z,1012.50
2018-09-16T07:30:05.880Z,1012.50
2018-09-16T07:31:05.834Z,1012.52
2018-09-16T07:32:05.814Z,1012.49
2018-09-16T07:33:05.735Z,1012.43
2018-09-16T07:34:05.805Z,1012.43
2018-09-16T07:35:05.642Z,1012.39
2018-09-16T07:36:05.597Z,1012.40
2018-09-16T07:37:05.576Z,1012.38
2018-09-16T07:38:05.496Z,1012.38
2018-09-16T07:39:05.448Z,1012.33
2018-09-16T07:40:05.393Z,1012.33
2018-09-16T07:41:05.369Z,1012.30
2018-09-16T07:42:05.368Z,1012.28
2018-09-16T07:43:05.257Z,1012.24
2018-09-16T07:44:05.205Z,1012.26
2018-09-16T07:45:05.159Z,1012.21
2018-09-16T07:46:05.120Z,1012.25
2018-09-16T07:47:05.081Z,1012.27
2018-09-16T07:48:05.053Z,1012.26
2018-09-16T07:49:04.962Z,1012.26
2018-09-16T07:50:04.916Z,1012.29
2018-09-16T07:51:04.872Z,1012.30
2018-09-16T07:52:04.834Z,1012.33
2018-09-16T07:53:04.854Z,1012.35
2018-09-16T07:54:04.731Z,1012.35
2018-09-16T07:55:04.698Z,1012.32
2018-09-16T07:56:04.656Z,1012.30
2018-09-16T07:57:04.583Z,1012.33
2018-09-16T07:58:04.570Z,1012.30
2018-09-16T07:59:04.487Z,1012.29
2018-09-16T08:00:04.448Z,1012.27
2018-09-16T08:01:04.386Z,1012.30
2018-09-16T08:02:04.352Z,1012.27
2018-09-16T08:03:04.338Z,1012.27
2018-09-16T08:04:04.287Z,1012.28
2018-09-16T08:05:04.409Z,1012.26
2018-09-16T08:06:04.196Z,1012.23
2018-09-16T08:07:04.137Z,1012.28
2018-09-16T08:08:04.080Z,1012.33
2018-09-16T08:09:04.017Z,1012.32
2018-09-16T08:10:03.975Z,1012.29
2018-09-16T08:11:03.929Z,1012.33
2018-09-16T08:12:03.879Z,1012.33
2018-09-16T08:13:03.860Z,1012.34
2018-09-16T08:14:03.770Z,1012.35
2018-09-16T08:15:03.722Z,1012.37
2018-09-16T08:16:03.682Z,1012.38
2018-09-16T08:17:03.627Z,1012.39
2018-09-16T08:18:03.600Z,1012.38
2018-09-16T08:19:03.533Z,1012.37
2018-09-16T08:20:03.489Z,1012.37
2018-09-16T08:21:03.575Z,1012.36
2018-09-16T08:22:03.401Z,1012.39
2018-09-16T08:23:03.375Z,1012.39
2018-09-16T08:24:03.289Z,1012.41
2018-09-16T08:25:03.241Z,1012.44
2018-09-16T08:26:03.195Z,1012.43
2018-09-16T08:27:03.147Z,1012.40
2018-09-16T08:28:03.136Z,1012.37
2018-09-16T08:29:03.053Z,1012.39
2018-09-16T08:30:03.006Z,1012.43
2018-09-16T08:31:02.959Z,1012.40
2018-09-16T08:32:02.915Z,1012.43
2018-09-16T08:33:02.897Z,1012.36
2018-09-16T08:34:02.812Z,1012.37
2018-09-16T08:35:02.775Z,1012.41
2018-09-16T08:36:02.713Z,1012.36
2018-09-16T08:37:02.685Z,1012.38
2018-09-16T08:38:02.723Z,1012.34
2018-09-16T08:39:02.586Z,1012.40
2018-09-16T08:40:02.530Z,1012.36
2018-09-16T08:41:02.481Z,1012.36
2018-09-16T08:42:02.431Z,1012.36
2018-09-16T08:43:02.411Z,1012.38
2018-09-16T08:44:02.332Z,1012.40
2018-09-16T08:45:02.296Z,1012.39
2018-09-16T08:46:02.237Z,1012.41
2018-09-16T08:47:02.199Z,1012.38
2018-09-16T08:48:02.193Z,1012.35
2018-09-16T08:49:02.105Z,1012.33
2018-09-16T08:50:02.084Z,1012.32
2018-09-16T08:51:02.001Z,1012.36
2018-09-16T08:52:01.967Z,1012.37
2018-09-16T08:53:01.907Z,1012.35
2018-09-16T08:54:01.886Z,1012.36
2018-09-16T08:55:01.844Z,1012.36
2018-09-16T08:56:01.798Z,1012.36
2018-09-16T08:57:01.720Z,1012.34
2018-09-16T08:58:01.684Z,1012.33
2018-09-16T08:59:01.702Z,1012.31
2018-09-16T09:00:01.599Z,1012.33
2018-09-16T09:01:01.526Z,1012.35
2018-09-16T09:02:01.494Z,1012.30
2018-09-16T09:03:01.436Z,1012.29
2018-09-16T09:04:01.426Z,1012.32
2018-09-16T09:05:01.336Z,1012.30
2018-09-16T09:06:01.292Z,1012.24
2018-09-16T09:07:01.247Z,1012.23
2018-09-16T09:08:01.195Z,1012.24
2018-09-16T09:09:01.177Z,1012.23
2018-09-16T09:10:01.115Z,1012.22
2018-09-16T09:11:01.059Z,1012.21
2018-09-16T09:12:01.053Z,1012.27
2018-09-16T09:13:00.977Z,1012.24
2018-09-16T09:14:00.943Z,1012.25
2018-09-16T09:15:00.885Z,1012.21
2018-09-16T09:16:00.827Z,1012.18
2018-09-16T09:17:00.770Z,1012.20
2018-09-16T09:18:00.740Z,1012.20
2018-09-16T09:19:00.709Z,1012.22
2018-09-16T09:20:00.643Z,1012.23
2018-09-16T09:21:00.617Z,1012.22
2018-09-16T09:22:00.539Z,1012.22
2018-09-16T09:23:00.497Z,1012.20
2018-09-16T09:24:00.479Z,1012.20
2018-09-16T09:25:00.401Z,1012.16
2018-09-16T09:26:00.358Z,1012.15
2018-09-16T09:27:00.320Z,1012.17
2018-09-16T09:28:00.269Z,1012.13
2018-09-16T09:29:00.272Z,1012.14
2018-09-16T09:30:00.165Z,1012.14
2018-09-16T09:31:00.120Z,1012.13
2018-09-16T09:32:00.068Z,1012.09
2018-09-16T09:33:00.022Z,1012.07
2018-09-16T09:34:00.013Z,1012.07
2018-09-16T09:34:59.935Z,1012.13
2018-09-16T09:35:59.904Z,1012.06
2018-09-16T09:36:59.836Z,1012.09
2018-09-16T09:37:59.790Z,1012.11
2018-09-16T09:38:59.784Z,1012.09
2018-09-16T09:39:59.704Z,1012.08
2018-09-16T09:40:59.663Z,1012.08
2018-09-16T09:41:59.600Z,1012.05
2018-09-16T09:42:59.557Z,1012.04
2018-09-16T09:43:59.552Z,1011.98
2018-09-16T09:44:59.469Z,1011.98
2018-09-16T09:45:59.415Z,1011.98
2018-09-16T09:46:59.380Z,1011.98
2018-09-16T09:47:59.335Z,1011.93
2018-09-16T09:48:59.303Z,1011.90
2018-09-16T09:49:59.235Z,1011.91
2018-09-16T09:50:59.265Z,1011.91
2018-09-16T09:51:59.137Z,1011.91
2018-09-16T09:52:59.086Z,1011.90
2018-09-16T09:53:59.072Z,1011.91
2018-09-16T09:54:59.016Z,1011.86
2018-09-16T09:55:58.952Z,1011.88
2018-09-16T09:56:58.911Z,1011.87
2018-09-16T09:57:58.872Z,1011.86
2018-09-16T09:58:58.919Z,1011.86
2018-09-16T09:59:58.769Z,1011.83
2018-09-16T10:00:58.735Z,1011.80
2018-09-16T10:01:58.681Z,1011.82
2018-09-16T10:02:58.634Z,1011.79
2018-09-16T10:03:58.619Z,1011.80
2018-09-16T10:04:58.535Z,1011.78
2018-09-16T10:05:58.545Z,1011.77
2018-09-16T10:06:58.441Z,1011.82
2018-09-16T10:07:58.415Z,1011.78
2018-09-16T10:08:58.510Z,1011.85
2018-09-16T10:09:58.331Z,1011.86
2018-09-16T10:10:58.262Z,1011.85
2018-09-16T10:11:58.207Z,1011.84
2018-09-16T10:12:58.166Z,1011.80
2018-09-16T10:13:58.127Z,1011.82
2018-09-16T10:14:58.095Z,1011.74
2018-09-16T10:15:58.022Z,1011.76
2018-09-16T10:16:57.973Z,1011.78
2018-09-16T10:17:57.941Z,1011.81
2018-09-16T10:18:57.902Z,1011.76
2018-09-16T10:19:57.891Z,1011.75
2018-09-16T10:20:57.800Z,1011.77
2018-09-16T10:21:57.761Z,1011.75
2018-09-16T10:22:57.700Z,1011.75
2018-09-16T10:23:57.681Z,1011.77
2018-09-16T10:24:57.640Z,1011.76
2018-09-16T10:25:57.585Z,1011.73
2018-09-16T10:26:57.522Z,1011.72
2018-09-16T10:27:57.467Z,1011.66
2018-09-16T10:28:57.419Z,1011.65
2018-09-16T10:29:57.429Z,1011.64
2018-09-16T10:30:57.341Z,1011.60
2018-09-16T10:31:57.293Z,1011.61
2018-09-16T10:32:57.260Z,1011.63
2018-09-16T10:33:57.190Z,1011.59
2018-09-16T10:34:57.191Z,1011.57
2018-09-16T10:35:57.113Z,1011.54
2018-09-16T10:36:57.049Z,1011.60
2018-09-16T10:37:57.022Z,1011.54
2018-09-16T10:38:57.009Z,1011.54
2018-09-16T10:39:56.950Z,1011.61
2018-09-16T10:40:56.868Z,1011.55
2018-09-16T10:41:56.822Z,1011.53
2018-09-16T10:42:56.784Z,1011.49
2018-09-16T10:43:56.748Z,1011.50
2018-09-16T10:44:56.704Z,1011.45
2018-09-16T10:45:56.642Z,1011.46
2018-09-16T10:46:56.587Z,1011.54
2018-09-16T10:47:56.545Z,1011.50
2018-09-16T10:48:56.500Z,1011.48
2018-09-16T10:49:56.506Z,1011.48
2018-09-16T10:50:56.403Z,1011.49
2018-09-16T10:51:56.361Z,1011.46
2018-09-16T10:52:56.315Z,1011.51
2018-09-16T10:53:56.266Z,1011.45
2018-09-16T10:54:56.255Z,1011.44
2018-09-16T10:55:56.174Z,1011.45
2018-09-16T10:56:56.132Z,1011.47
2018-09-16T10:57:56.111Z,1011.47
2018-09-16T10:58:56.050Z,1011.40
2018-09-16T10:59:56.022Z,1011.43
2018-09-16T11:00:55.943Z,1011.41
2018-09-16T11:01:55.897Z,1011.41
2018-09-16T11:02:55.850Z,1011.50
2018-09-16T11:03:55.812Z,1011.49
2018-09-16T11:04:55.796Z,1011.49
2018-09-16T11:05:55.717Z,1011.44
2018-09-16T11:06:55.691Z,1011.38
2018-09-16T11:07:55.695Z,1011.41
2018-09-16T11:08:55.602Z,1011.41
2018-09-16T11:09:55.549Z,1011.44
2018-09-16T11:10:55.485Z,1011.39
2018-09-16T11:11:55.436Z,1011.39
2018-09-16T11:12:55.395Z,1011.35
2018-09-16T11:13:55.346Z,1011.36
2018-09-16T11:14:55.349Z,1011.34
2018-09-16T11:15:55.454Z,1011.40
2018-09-16T11:16:55.213Z,1011.37
2018-09-16T11:17:55.176Z,1011.38
2018-09-16T11:18:55.217Z,1011.42
2018-09-16T11:19:55.111Z,1011.39
2018-09-16T11:20:55.021Z,1011.37
2018-09-16T11:21:54.981Z,1011.31
2018-09-16T11:22:54.942Z,1011.32
2018-09-16T11:23:54.892Z,1011.27
2018-09-16T11:24:54.845Z,1011.27
2018-09-16T11:25:54.816Z,1011.27
2018-09-16T11:26:54.748Z,1011.23
2018-09-16T11:27:54.710Z,1011.28
2018-09-16T11:28:54.655Z,1011.22
2018-09-16T11:29:54.621Z,1011.19
2018-09-16T11:30:54.587Z,1011.18
2018-09-16T11:31:54.517Z,1011.15
2018-09-16T11:32:54.474Z,1011.17
2018-09-16T11:33:54.428Z,1011.12
2018-09-16T11:34:54.380Z,1011.08
2018-09-16T11:35:54.358Z,1011.08
2018-09-16T11:36:54.291Z,1011.08
2018-09-16T11:37:54.243Z,1011.09
2018-09-16T11:38:54.197Z,1011.06
2018-09-16T11:39:54.155Z,1011.07
2018-09-16T11:40:54.133Z,1011.10
2018-09-16T11:41:54.063Z,1011.08
2018-09-16T11:42:54.010Z,1011.11
2018-09-16T11:43:53.973Z,1011.12
2018-09-16T11:44:53.921Z,1011.14
2018-09-16T11:45:53.903Z,1011.10
2018-09-16T11:46:53.831Z,1011.05
2018-09-16T11:47:53.794Z,1011.08
2018-09-16T11:48:53.746Z,1011.04
2018-09-16T11:49:53.699Z,1011.00
2018-09-16T11:50:53.678Z,1011.04
2018-09-16T11:51:53.603Z,1011.04
2018-09-16T11:52:53.558Z,1011.00
2018-09-16T11:53:53.539Z,1010.97
2018-09-16T11:54:53.465Z,1010.95
2018-09-16T11:55:53.440Z,1010.95
2018-09-16T11:56:53.380Z,1010.95
2018-09-16T11:57:53.328Z,1010.96
2018-09-16T11:58:53.281Z,1010.96
2018-09-16T11:59:53.237Z,1010.97
2018-09-16T12:00:53.217Z,1010.96
2018-09-16T12:01:53.229Z,1010.91
2018-09-16T12:02:53.102Z,1010.93
2018-09-16T12:03:53.054Z,1010.91
2018-09-16T12:04:53.015Z,1010.86